sensor_id;sensor_type;location;lat;lon;timestamp;P1;durP1;ratioP1;P2;durP2;ratioP2
69573;SDS011;62840;52.366;5.980;2023-04-03T00:02:02;4.57;;;1.57;;
69573;SDS011;62840;52.366;5.980;2023-04-03T00:04:38;3.50;;;1.00;;
69573;SDS011;62840;52.366;5.980;2023-04-03T00:07:19;5.20;;;1.40;;
69573;SDS011;62840;52.366;5.980;2023-04-03T00:09:53;4.50;;;1.05;;
69573;SDS011;62840;52.366;5.980;2023-04-03T00:12:36;2.95;;;0.98;;
69573;SDS011;62840;52.366;5.980;2023-04-03T00:15:06;3.40;;;1.30;;
69573;SDS011;62840;52.366;5.980;2023-04-03T00:17:35;3.45;;;1.10;;
69573;SDS011;62840;52.366;5.980;2023-04-03T00:20:03;4.20;;;0.90;;
69573;SDS011;62840;52.366;5.980;2023-04-03T00:22:51;5.10;;;1.23;;
69573;SDS011;62840;52.366;5.980;2023-04-03T00:25:39;3.90;;;1.17;;
69573;SDS011;62840;52.366;5.980;2023-04-03T00:28:26;4.23;;;1.20;;
69573;SDS011;62840;52.366;5.980;2023-04-03T00:31:10;4.75;;;1.08;;
69573;SDS011;62840;52.366;5.980;2023-04-03T00:33:45;3.80;;;1.10;;
69573;SDS011;62840;52.366;5.980;2023-04-03T00:36:11;3.33;;;1.25;;
69573;SDS011;62840;52.366;5.980;2023-04-03T00:38:41;3.83;;;1.30;;
69573;SDS011;62840;52.366;5.980;2023-04-03T00:41:07;4.30;;;1.40;;
69573;SDS011;62840;52.366;5.980;2023-04-03T00:43:41;3.92;;;1.55;;
69573;SDS011;62840;52.366;5.980;2023-04-03T00:46:07;3.95;;;1.02;;
69573;SDS011;62840;52.366;5.980;2023-04-03T00:48:37;4.35;;;1.30;;
69573;SDS011;62840;52.366;5.980;2023-04-03T00:51:09;4.33;;;0.93;;
69573;SDS011;62840;52.366;5.980;2023-04-03T00:53:43;4.65;;;1.00;;
69573;SDS011;62840;52.366;5.980;2023-04-03T00:56:15;3.58;;;1.20;;
69573;SDS011;62840;52.366;5.980;2023-04-03T00:58:52;5.32;;;1.42;;
69573;SDS011;62840;52.366;5.980;2023-04-03T01:01:27;3.20;;;1.05;;
69573;SDS011;62840;52.366;5.980;2023-04-03T01:03:54;4.10;;;0.90;;
69573;SDS011;62840;52.366;5.980;2023-04-03T01:06:21;4.38;;;1.17;;
69573;SDS011;62840;52.366;5.980;2023-04-03T01:08:53;2.92;;;1.00;;
69573;SDS011;62840;52.366;5.980;2023-04-03T01:11:20;3.63;;;1.30;;
69573;SDS011;62840;52.366;5.980;2023-04-03T01:13:49;3.28;;;1.05;;
69573;SDS011;62840;52.366;5.980;2023-04-03T01:16:15;3.30;;;1.20;;
69573;SDS011;62840;52.366;5.980;2023-04-03T01:18:41;2.90;;;1.30;;
69573;SDS011;62840;52.366;5.980;2023-04-03T01:24:29;3.70;;;1.13;;
69573;SDS011;62840;52.366;5.980;2023-04-03T01:27:00;3.67;;;1.20;;
69573;SDS011;62840;52.366;5.980;2023-04-03T01:29:31;3.88;;;0.98;;
69573;SDS011;62840;52.366;5.980;2023-04-03T01:32:00;4.90;;;1.25;;
69573;SDS011;62840;52.366;5.980;2023-04-03T01:34:28;3.38;;;1.10;;
69573;SDS011;62840;52.366;5.980;2023-04-03T01:36:55;3.67;;;1.17;;
69573;SDS011;62840;52.366;5.980;2023-04-03T01:39:21;4.55;;;1.50;;
69573;SDS011;62840;52.366;5.980;2023-04-03T01:41:48;3.28;;;1.10;;
69573;SDS011;62840;52.366;5.980;2023-04-03T01:44:14;4.15;;;1.40;;
69573;SDS011;62840;52.366;5.980;2023-04-03T01:46:40;3.30;;;1.23;;
69573;SDS011;62840;52.366;5.980;2023-04-03T01:49:08;4.32;;;1.40;;
69573;SDS011;62840;52.366;5.980;2023-04-03T01:51:34;4.45;;;1.05;;
69573;SDS011;62840;52.366;5.980;2023-04-03T01:54:00;4.07;;;1.37;;
69573;SDS011;62840;52.366;5.980;2023-04-03T01:56:26;3.38;;;1.38;;
69573;SDS011;62840;52.366;5.980;2023-04-03T01:58:52;5.60;;;1.27;;
69573;SDS011;62840;52.366;5.980;2023-04-03T02:01:17;6.05;;;1.30;;
69573;SDS011;62840;52.366;5.980;2023-04-03T02:03:43;3.47;;;1.13;;
69573;SDS011;62840;52.366;5.980;2023-04-03T02:06:12;4.22;;;1.13;;
69573;SDS011;62840;52.366;5.980;2023-04-03T02:08:37;3.97;;;1.20;;
69573;SDS011;62840;52.366;5.980;2023-04-03T02:11:03;4.70;;;1.20;;
69573;SDS011;62840;52.366;5.980;2023-04-03T02:13:29;6.22;;;1.17;;
69573;SDS011;62840;52.366;5.980;2023-04-03T02:15:55;4.40;;;1.37;;
69573;SDS011;62840;52.366;5.980;2023-04-03T02:18:20;3.75;;;1.48;;
69573;SDS011;62840;52.366;5.980;2023-04-03T02:20:46;4.07;;;1.00;;
69573;SDS011;62840;52.366;5.980;2023-04-03T02:23:15;3.55;;;1.20;;
69573;SDS011;62840;52.366;5.980;2023-04-03T02:25:40;4.00;;;1.02;;
69573;SDS011;62840;52.366;5.980;2023-04-03T02:28:06;3.78;;;1.15;;
69573;SDS011;62840;52.366;5.980;2023-04-03T02:30:32;5.68;;;1.20;;
69573;SDS011;62840;52.366;5.980;2023-04-03T02:32:58;3.70;;;1.30;;
69573;SDS011;62840;52.366;5.980;2023-04-03T02:35:24;3.60;;;1.40;;
69573;SDS011;62840;52.366;5.980;2023-04-03T02:37:50;5.00;;;1.10;;
69573;SDS011;62840;52.366;5.980;2023-04-03T02:40:18;4.70;;;1.40;;
69573;SDS011;62840;52.366;5.980;2023-04-03T02:42:44;4.30;;;1.15;;
69573;SDS011;62840;52.366;5.980;2023-04-03T02:45:10;3.33;;;1.05;;
69573;SDS011;62840;52.366;5.980;2023-04-03T02:47:35;4.17;;;1.27;;
69573;SDS011;62840;52.366;5.980;2023-04-03T02:50:01;4.70;;;1.40;;
69573;SDS011;62840;52.366;5.980;2023-04-03T02:52:27;3.95;;;1.33;;
69573;SDS011;62840;52.366;5.980;2023-04-03T02:54:53;3.03;;;1.13;;
69573;SDS011;62840;52.366;5.980;2023-04-03T02:57:21;3.40;;;1.42;;
69573;SDS011;62840;52.366;5.980;2023-04-03T02:59:47;4.17;;;1.13;;
69573;SDS011;62840;52.366;5.980;2023-04-03T03:02:13;4.35;;;1.25;;
69573;SDS011;62840;52.366;5.980;2023-04-03T03:04:38;5.10;;;1.47;;
69573;SDS011;62840;52.366;5.980;2023-04-03T03:07:04;3.67;;;1.25;;
69573;SDS011;62840;52.366;5.980;2023-04-03T03:09:30;4.13;;;1.50;;
69573;SDS011;62840;52.366;5.980;2023-04-03T03:11:56;3.97;;;1.10;;
69573;SDS011;62840;52.366;5.980;2023-04-03T03:14:25;5.97;;;1.55;;
69573;SDS011;62840;52.366;5.980;2023-04-03T03:16:50;5.50;;;1.40;;
69573;SDS011;62840;52.366;5.980;2023-04-03T03:19:16;3.83;;;1.47;;
69573;SDS011;62840;52.366;5.980;2023-04-03T03:21:42;5.15;;;1.55;;
69573;SDS011;62840;52.366;5.980;2023-04-03T03:24:07;4.50;;;1.30;;
69573;SDS011;62840;52.366;5.980;2023-04-03T03:26:34;4.20;;;1.45;;
69573;SDS011;62840;52.366;5.980;2023-04-03T03:29:00;5.20;;;1.73;;
69573;SDS011;62840;52.366;5.980;2023-04-03T03:31:29;3.63;;;1.40;;
69573;SDS011;62840;52.366;5.980;2023-04-03T03:33:55;5.20;;;1.30;;
69573;SDS011;62840;52.366;5.980;2023-04-03T03:36:21;5.10;;;1.50;;
69573;SDS011;62840;52.366;5.980;2023-04-03T03:38:47;5.33;;;1.10;;
69573;SDS011;62840;52.366;5.980;2023-04-03T03:41:12;4.80;;;1.30;;
69573;SDS011;62840;52.366;5.980;2023-04-03T03:43:38;3.43;;;1.20;;
69573;SDS011;62840;52.366;5.980;2023-04-03T03:46:04;7.22;;;1.52;;
69573;SDS011;62840;52.366;5.980;2023-04-03T03:48:32;3.40;;;1.30;;
69573;SDS011;62840;52.366;5.980;2023-04-03T03:50:58;5.70;;;1.70;;
69573;SDS011;62840;52.366;5.980;2023-04-03T03:53:24;4.03;;;1.20;;
69573;SDS011;62840;52.366;5.980;2023-04-03T03:55:49;3.55;;;1.27;;
69573;SDS011;62840;52.366;5.980;2023-04-03T03:58:15;5.78;;;1.63;;
69573;SDS011;62840;52.366;5.980;2023-04-03T04:00:41;3.13;;;1.10;;
69573;SDS011;62840;52.366;5.980;2023-04-03T04:03:07;3.72;;;1.30;;
69573;SDS011;62840;52.366;5.980;2023-04-03T04:05:35;3.70;;;1.53;;
69573;SDS011;62840;52.366;5.980;2023-04-03T04:08:01;4.32;;;1.38;;
69573;SDS011;62840;52.366;5.980;2023-04-03T04:10:26;3.47;;;1.23;;
69573;SDS011;62840;52.366;5.980;2023-04-03T04:12:52;5.25;;;1.40;;
69573;SDS011;62840;52.366;5.980;2023-04-03T04:15:18;4.18;;;1.40;;
69573;SDS011;62840;52.366;5.980;2023-04-03T04:17:43;3.65;;;1.38;;
69573;SDS011;62840;52.366;5.980;2023-04-03T04:20:10;4.43;;;1.50;;
69573;SDS011;62840;52.366;5.980;2023-04-03T04:22:39;4.15;;;1.65;;
69573;SDS011;62840;52.366;5.980;2023-04-03T04:25:05;3.63;;;1.38;;
69573;SDS011;62840;52.366;5.980;2023-04-03T04:27:31;4.63;;;1.33;;
69573;SDS011;62840;52.366;5.980;2023-04-03T04:29:56;3.90;;;1.40;;
69573;SDS011;62840;52.366;5.980;2023-04-03T04:32:22;3.40;;;1.40;;
69573;SDS011;62840;52.366;5.980;2023-04-03T04:34:48;5.13;;;1.43;;
69573;SDS011;62840;52.366;5.980;2023-04-03T04:37:14;5.15;;;1.35;;
69573;SDS011;62840;52.366;5.980;2023-04-03T04:39:42;4.50;;;1.60;;
69573;SDS011;62840;52.366;5.980;2023-04-03T04:42:08;4.90;;;1.67;;
69573;SDS011;62840;52.366;5.980;2023-04-03T04:44:34;4.28;;;1.75;;
69573;SDS011;62840;52.366;5.980;2023-04-03T04:46:59;5.33;;;1.47;;
69573;SDS011;62840;52.366;5.980;2023-04-03T04:49:25;9.32;;;1.73;;
69573;SDS011;62840;52.366;5.980;2023-04-03T04:51:51;4.57;;;1.30;;
69573;SDS011;62840;52.366;5.980;2023-04-03T04:54:17;4.13;;;1.40;;
69573;SDS011;62840;52.366;5.980;2023-04-03T04:56:45;3.50;;;1.43;;
69573;SDS011;62840;52.366;5.980;2023-04-03T04:59:11;4.68;;;1.30;;
69573;SDS011;62840;52.366;5.980;2023-04-03T05:01:37;3.63;;;1.55;;
69573;SDS011;62840;52.366;5.980;2023-04-03T05:04:03;4.15;;;1.50;;
69573;SDS011;62840;52.366;5.980;2023-04-03T05:06:29;5.77;;;1.50;;
69573;SDS011;62840;52.366;5.980;2023-04-03T05:08:54;3.50;;;1.40;;
69573;SDS011;62840;52.366;5.980;2023-04-03T05:11:21;4.63;;;1.60;;
69573;SDS011;62840;52.366;5.980;2023-04-03T05:13:49;3.80;;;1.53;;
69573;SDS011;62840;52.366;5.980;2023-04-03T05:16:15;5.93;;;1.92;;
69573;SDS011;62840;52.366;5.980;2023-04-03T05:18:41;3.40;;;1.20;;
69573;SDS011;62840;52.366;5.980;2023-04-03T05:21:06;3.73;;;1.13;;
69573;SDS011;62840;52.366;5.980;2023-04-03T05:23:32;3.45;;;1.40;;
69573;SDS011;62840;52.366;5.980;2023-04-03T05:25:58;3.55;;;1.45;;
69573;SDS011;62840;52.366;5.980;2023-04-03T05:28:24;6.35;;;1.50;;
69573;SDS011;62840;52.366;5.980;2023-04-03T05:30:55;4.03;;;1.33;;
69573;SDS011;62840;52.366;5.980;2023-04-03T05:33:23;3.33;;;1.05;;
69573;SDS011;62840;52.366;5.980;2023-04-03T05:35:50;4.05;;;1.50;;
69573;SDS011;62840;52.366;5.980;2023-04-03T05:38:15;4.97;;;1.70;;
69573;SDS011;62840;52.366;5.980;2023-04-03T05:40:41;4.20;;;1.53;;
69573;SDS011;62840;52.366;5.980;2023-04-03T05:43:07;4.60;;;1.80;;
69573;SDS011;62840;52.366;5.980;2023-04-03T05:45:33;5.47;;;1.70;;
69573;SDS011;62840;52.366;5.980;2023-04-03T05:48:01;4.97;;;1.48;;
69573;SDS011;62840;52.366;5.980;2023-04-03T05:50:27;4.00;;;1.80;;
69573;SDS011;62840;52.366;5.980;2023-04-03T05:52:53;3.30;;;1.27;;
69573;SDS011;62840;52.366;5.980;2023-04-03T05:55:22;4.50;;;1.50;;
69573;SDS011;62840;52.366;5.980;2023-04-03T05:57:48;4.30;;;1.70;;
69573;SDS011;62840;52.366;5.980;2023-04-03T06:00:14;3.92;;;1.45;;
69573;SDS011;62840;52.366;5.980;2023-04-03T06:02:41;4.50;;;1.25;;
69573;SDS011;62840;52.366;5.980;2023-04-03T06:05:10;5.15;;;1.85;;
69573;SDS011;62840;52.366;5.980;2023-04-03T06:07:36;4.30;;;1.10;;
69573;SDS011;62840;52.366;5.980;2023-04-03T06:10:03;3.50;;;1.25;;
69573;SDS011;62840;52.366;5.980;2023-04-03T06:12:31;3.15;;;1.30;;
69573;SDS011;62840;52.366;5.980;2023-04-03T06:14:56;5.20;;;1.55;;
69573;SDS011;62840;52.366;5.980;2023-04-03T06:17:22;6.47;;;1.52;;
69573;SDS011;62840;52.366;5.980;2023-04-03T06:19:48;5.90;;;1.42;;
69573;SDS011;62840;52.366;5.980;2023-04-03T06:22:17;3.93;;;1.60;;
69573;SDS011;62840;52.366;5.980;2023-04-03T06:24:42;4.72;;;1.50;;
69573;SDS011;62840;52.366;5.980;2023-04-03T06:27:08;3.60;;;1.55;;
69573;SDS011;62840;52.366;5.980;2023-04-03T06:29:35;4.47;;;1.43;;
69573;SDS011;62840;52.366;5.980;2023-04-03T06:32:01;4.20;;;1.75;;
69573;SDS011;62840;52.366;5.980;2023-04-03T06:34:26;5.17;;;1.27;;
69573;SDS011;62840;52.366;5.980;2023-04-03T06:36:52;5.43;;;1.50;;
69573;SDS011;62840;52.366;5.980;2023-04-03T06:39:21;5.50;;;1.50;;
69573;SDS011;62840;52.366;5.980;2023-04-03T06:41:47;5.00;;;1.55;;
69573;SDS011;62840;52.366;5.980;2023-04-03T06:44:13;4.40;;;1.45;;
69573;SDS011;62840;52.366;5.980;2023-04-03T06:46:39;4.43;;;1.10;;
69573;SDS011;62840;52.366;5.980;2023-04-03T06:49:05;4.43;;;1.20;;
69573;SDS011;62840;52.366;5.980;2023-04-03T06:51:31;4.80;;;1.27;;
69573;SDS011;62840;52.366;5.980;2023-04-03T06:53:57;3.70;;;1.30;;
69573;SDS011;62840;52.366;5.980;2023-04-03T06:56:27;4.82;;;1.33;;
69573;SDS011;62840;52.366;5.980;2023-04-03T06:58:53;4.05;;;1.30;;
69573;SDS011;62840;52.366;5.980;2023-04-03T07:01:21;4.18;;;1.27;;
69573;SDS011;62840;52.366;5.980;2023-04-03T07:03:47;3.30;;;1.00;;
69573;SDS011;62840;52.366;5.980;2023-04-03T07:06:14;6.05;;;1.52;;
69573;SDS011;62840;52.366;5.980;2023-04-03T07:08:43;5.20;;;1.20;;
69573;SDS011;62840;52.366;5.980;2023-04-03T07:11:10;4.60;;;1.40;;
69573;SDS011;62840;52.366;5.980;2023-04-03T07:13:40;4.40;;;1.10;;
69573;SDS011;62840;52.366;5.980;2023-04-03T07:16:06;4.13;;;1.10;;
69573;SDS011;62840;52.366;5.980;2023-04-03T07:18:33;4.35;;;1.13;;
69573;SDS011;62840;52.366;5.980;2023-04-03T07:20:59;5.13;;;1.13;;
69573;SDS011;62840;52.366;5.980;2023-04-03T07:23:25;5.20;;;1.20;;
69573;SDS011;62840;52.366;5.980;2023-04-03T07:25:51;3.80;;;1.20;;
69573;SDS011;62840;52.366;5.980;2023-04-03T07:28:19;4.88;;;1.33;;
69573;SDS011;62840;52.366;5.980;2023-04-03T07:30:48;3.25;;;1.02;;
69573;SDS011;62840;52.366;5.980;2023-04-03T07:33:18;5.10;;;1.08;;
69573;SDS011;62840;52.366;5.980;2023-04-03T07:35:47;4.73;;;1.10;;
69573;SDS011;62840;52.366;5.980;2023-04-03T07:38:14;4.03;;;1.27;;
69573;SDS011;62840;52.366;5.980;2023-04-03T07:40:40;6.00;;;1.17;;
69573;SDS011;62840;52.366;5.980;2023-04-03T07:43:11;4.27;;;1.10;;
69573;SDS011;62840;52.366;5.980;2023-04-03T07:45:37;4.85;;;1.20;;
69573;SDS011;62840;52.366;5.980;2023-04-03T07:48:05;3.15;;;1.00;;
69573;SDS011;62840;52.366;5.980;2023-04-03T07:50:31;4.57;;;1.40;;
69573;SDS011;62840;52.366;5.980;2023-04-03T07:52:57;3.70;;;1.17;;
69573;SDS011;62840;52.366;5.980;2023-04-03T07:55:23;3.53;;;1.10;;
69573;SDS011;62840;52.366;5.980;2023-04-03T07:57:49;4.17;;;1.13;;
69573;SDS011;62840;52.366;5.980;2023-04-03T08:00:15;2.75;;;0.85;;
69573;SDS011;62840;52.366;5.980;2023-04-03T08:02:42;3.55;;;1.00;;
69573;SDS011;62840;52.366;5.980;2023-04-03T08:05:10;3.73;;;1.53;;
69573;SDS011;62840;52.366;5.980;2023-04-03T08:07:36;4.75;;;1.08;;
69573;SDS011;62840;52.366;5.980;2023-04-03T08:10:02;3.78;;;1.10;;
69573;SDS011;62840;52.366;5.980;2023-04-03T08:12:29;3.00;;;0.88;;
69573;SDS011;62840;52.366;5.980;2023-04-03T08:14:55;3.90;;;0.80;;
69573;SDS011;62840;52.366;5.980;2023-04-03T08:17:21;4.90;;;0.90;;
69573;SDS011;62840;52.366;5.980;2023-04-03T08:19:47;3.75;;;0.90;;
69573;SDS011;62840;52.366;5.980;2023-04-03T08:22:15;3.20;;;0.95;;
69573;SDS011;62840;52.366;5.980;2023-04-03T08:24:41;3.63;;;1.00;;
69573;SDS011;62840;52.366;5.980;2023-04-03T08:27:06;4.27;;;1.27;;
69573;SDS011;62840;52.366;5.980;2023-04-03T08:29:32;4.15;;;1.10;;
69573;SDS011;62840;52.366;5.980;2023-04-03T08:31:58;3.37;;;1.27;;
69573;SDS011;62840;52.366;5.980;2023-04-03T08:34:23;4.25;;;1.20;;
69573;SDS011;62840;52.366;5.980;2023-04-03T08:36:49;3.20;;;1.10;;
69573;SDS011;62840;52.366;5.980;2023-04-03T08:39:17;4.10;;;1.10;;
69573;SDS011;62840;52.366;5.980;2023-04-03T08:41:43;2.97;;;1.00;;
69573;SDS011;62840;52.366;5.980;2023-04-03T08:44:14;3.10;;;0.90;;
69573;SDS011;62840;52.366;5.980;2023-04-03T08:46:54;5.00;;;1.35;;
69573;SDS011;62840;52.366;5.980;2023-04-03T08:49:30;2.67;;;0.90;;
69573;SDS011;62840;52.366;5.980;2023-04-03T08:52:02;3.35;;;0.70;;
69573;SDS011;62840;52.366;5.980;2023-04-03T08:54:40;3.55;;;0.80;;
69573;SDS011;62840;52.366;5.980;2023-04-03T08:57:16;3.40;;;0.70;;
69573;SDS011;62840;52.366;5.980;2023-04-03T08:59:51;3.15;;;0.80;;
69573;SDS011;62840;52.366;5.980;2023-04-03T09:02:21;5.50;;;1.10;;
69573;SDS011;62840;52.366;5.980;2023-04-03T09:04:53;3.85;;;0.90;;
69573;SDS011;62840;52.366;5.980;2023-04-03T09:07:21;3.70;;;0.63;;
69573;SDS011;62840;52.366;5.980;2023-04-03T09:10:01;3.20;;;0.70;;
69573;SDS011;62840;52.366;5.980;2023-04-03T09:12:32;3.28;;;0.90;;
69573;SDS011;62840;52.366;5.980;2023-04-03T09:15:05;3.95;;;1.35;;
69573;SDS011;62840;52.366;5.980;2023-04-03T09:17:45;2.83;;;0.90;;
69573;SDS011;62840;52.366;5.980;2023-04-03T09:20:25;2.93;;;0.73;;
69573;SDS011;62840;52.366;5.980;2023-04-03T09:23:14;2.47;;;0.60;;
69573;SDS011;62840;52.366;5.980;2023-04-03T09:25:54;2.40;;;0.70;;
69573;SDS011;62840;52.366;5.980;2023-04-03T09:28:27;3.17;;;0.80;;
69573;SDS011;62840;52.366;5.980;2023-04-03T09:30:55;2.38;;;0.60;;
69573;SDS011;62840;52.366;5.980;2023-04-03T09:33:21;3.33;;;0.60;;
69573;SDS011;62840;52.366;5.980;2023-04-03T09:35:48;2.50;;;0.73;;
69573;SDS011;62840;52.366;5.980;2023-04-03T09:38:16;3.05;;;0.70;;
69573;SDS011;62840;52.366;5.980;2023-04-03T09:40:47;3.10;;;0.80;;
69573;SDS011;62840;52.366;5.980;2023-04-03T09:43:25;3.05;;;0.70;;
69573;SDS011;62840;52.366;5.980;2023-04-03T09:45:54;2.70;;;0.73;;
69573;SDS011;62840;52.366;5.980;2023-04-03T09:48:22;3.15;;;0.63;;
69573;SDS011;62840;52.366;5.980;2023-04-03T09:50:57;4.30;;;0.60;;
69573;SDS011;62840;52.366;5.980;2023-04-03T09:53:26;1.33;;;0.40;;
69573;SDS011;62840;52.366;5.980;2023-04-03T09:55:59;2.65;;;0.40;;
69573;SDS011;62840;52.366;5.980;2023-04-03T09:58:30;2.28;;;0.47;;
69573;SDS011;62840;52.366;5.980;2023-04-03T10:01:02;2.22;;;0.50;;
69573;SDS011;62840;52.366;5.980;2023-04-03T10:03:30;2.92;;;0.60;;
69573;SDS011;62840;52.366;5.980;2023-04-03T10:05:58;3.63;;;0.80;;
69573;SDS011;62840;52.366;5.980;2023-04-03T10:08:26;2.60;;;0.68;;
69573;SDS011;62840;52.366;5.980;2023-04-03T10:11:11;2.35;;;0.85;;
69573;SDS011;62840;52.366;5.980;2023-04-03T10:13:52;2.50;;;0.80;;
69573;SDS011;62840;52.366;5.980;2023-04-03T10:16:21;3.38;;;0.60;;
69573;SDS011;62840;52.366;5.980;2023-04-03T10:18:57;2.83;;;0.63;;
69573;SDS011;62840;52.366;5.980;2023-04-03T10:21:39;2.28;;;0.77;;
69573;SDS011;62840;52.366;5.980;2023-04-03T10:24:13;1.85;;;0.47;;
69573;SDS011;62840;52.366;5.980;2023-04-03T10:26:50;2.40;;;0.60;;
69573;SDS011;62840;52.366;5.980;2023-04-03T10:29:31;2.40;;;0.77;;
69573;SDS011;62840;52.366;5.980;2023-04-03T10:32:20;3.00;;;0.80;;
69573;SDS011;62840;52.366;5.980;2023-04-03T10:35:17;2.00;;;0.50;;
69573;SDS011;62840;52.366;5.980;2023-04-03T10:38:01;2.53;;;0.70;;
69573;SDS011;62840;52.366;5.980;2023-04-03T10:40:42;2.40;;;0.40;;
69573;SDS011;62840;52.366;5.980;2023-04-03T10:43:25;3.60;;;1.08;;
69573;SDS011;62840;52.366;5.980;2023-04-03T10:46:05;3.13;;;0.80;;
69573;SDS011;62840;52.366;5.980;2023-04-03T10:48:40;1.70;;;0.40;;
69573;SDS011;62840;52.366;5.980;2023-04-03T10:51:25;1.90;;;0.70;;
69573;SDS011;62840;52.366;5.980;2023-04-03T10:54:00;2.20;;;0.63;;
69573;SDS011;62840;52.366;5.980;2023-04-03T10:56:35;4.05;;;0.75;;
69573;SDS011;62840;52.366;5.980;2023-04-03T10:59:14;1.87;;;0.40;;
69573;SDS011;62840;52.366;5.980;2023-04-03T11:01:51;3.35;;;0.73;;
69573;SDS011;62840;52.366;5.980;2023-04-03T11:04:24;2.08;;;0.55;;
69573;SDS011;62840;52.366;5.980;2023-04-03T11:07:00;3.75;;;0.57;;
69573;SDS011;62840;52.366;5.980;2023-04-03T11:09:32;3.47;;;0.68;;
69573;SDS011;62840;52.366;5.980;2023-04-03T11:12:04;3.00;;;0.90;;
69573;SDS011;62840;52.366;5.980;2023-04-03T11:14:37;2.97;;;0.73;;
69573;SDS011;62840;52.366;5.980;2023-04-03T11:17:09;3.15;;;0.80;;
69573;SDS011;62840;52.366;5.980;2023-04-03T11:19:48;2.63;;;0.70;;
69573;SDS011;62840;52.366;5.980;2023-04-03T11:22:23;3.08;;;0.60;;
69573;SDS011;62840;52.366;5.980;2023-04-03T11:24:56;2.50;;;0.85;;
69573;SDS011;62840;52.366;5.980;2023-04-03T11:27:33;3.17;;;0.93;;
69573;SDS011;62840;52.366;5.980;2023-04-03T11:30:07;3.28;;;1.02;;
69573;SDS011;62840;52.366;5.980;2023-04-03T11:32:50;3.30;;;0.80;;
69573;SDS011;62840;52.366;5.980;2023-04-03T11:35:43;2.95;;;1.08;;
69573;SDS011;62840;52.366;5.980;2023-04-03T11:38:15;3.53;;;0.70;;
69573;SDS011;62840;52.366;5.980;2023-04-03T11:40:48;4.60;;;0.80;;
69573;SDS011;62840;52.366;5.980;2023-04-03T11:43:20;3.05;;;0.88;;
69573;SDS011;62840;52.366;5.980;2023-04-03T11:45:50;2.67;;;0.85;;
69573;SDS011;62840;52.366;5.980;2023-04-03T12:03:33;2.85;;;1.08;;
69573;SDS011;62840;52.366;5.980;2023-04-03T12:12:31;2.42;;;0.90;;
69573;SDS011;62840;52.366;5.980;2023-04-03T12:21:21;2.90;;;0.90;;
69573;SDS011;62840;52.366;5.980;2023-04-03T12:24:04;2.50;;;0.93;;
69573;SDS011;62840;52.366;5.980;2023-04-03T12:26:50;3.25;;;0.85;;
69573;SDS011;62840;52.366;5.980;2023-04-03T12:29:33;4.38;;;1.00;;
69573;SDS011;62840;52.366;5.980;2023-04-03T12:32:10;3.00;;;1.08;;
69573;SDS011;62840;52.366;5.980;2023-04-03T12:34:55;3.67;;;1.00;;
69573;SDS011;62840;52.366;5.980;2023-04-03T12:37:43;3.30;;;1.02;;
69573;SDS011;62840;52.366;5.980;2023-04-03T12:40:39;3.75;;;1.10;;
69573;SDS011;62840;52.366;5.980;2023-04-03T12:43:19;4.60;;;1.00;;
69573;SDS011;62840;52.366;5.980;2023-04-03T12:46:10;3.58;;;1.00;;
69573;SDS011;62840;52.366;5.980;2023-04-03T12:48:46;3.15;;;0.85;;
69573;SDS011;62840;52.366;5.980;2023-04-03T12:51:14;5.28;;;1.00;;
69573;SDS011;62840;52.366;5.980;2023-04-03T12:53:45;3.10;;;1.20;;
69573;SDS011;62840;52.366;5.980;2023-04-03T12:56:24;3.10;;;1.00;;
69573;SDS011;62840;52.366;5.980;2023-04-03T12:58:52;3.10;;;1.00;;
69573;SDS011;62840;52.366;5.980;2023-04-03T13:01:21;3.67;;;0.90;;
69573;SDS011;62840;52.366;5.980;2023-04-03T13:03:50;2.60;;;0.88;;
69573;SDS011;62840;52.366;5.980;2023-04-03T13:06:21;2.67;;;0.60;;
69573;SDS011;62840;52.366;5.980;2023-04-03T13:08:52;2.50;;;0.88;;
69573;SDS011;62840;52.366;5.980;2023-04-03T13:11:20;4.13;;;1.10;;
69573;SDS011;62840;52.366;5.980;2023-04-03T13:13:55;5.07;;;1.15;;
69573;SDS011;62840;52.366;5.980;2023-04-03T13:16:23;4.05;;;1.00;;
69573;SDS011;62840;52.366;5.980;2023-04-03T13:18:50;3.13;;;1.13;;
69573;SDS011;62840;52.366;5.980;2023-04-03T13:21:18;2.70;;;1.00;;
69573;SDS011;62840;52.366;5.980;2023-04-03T13:23:49;2.80;;;0.80;;
69573;SDS011;62840;52.366;5.980;2023-04-03T13:26:18;3.97;;;1.37;;
69573;SDS011;62840;52.366;5.980;2023-04-03T13:28:50;3.25;;;1.30;;
69573;SDS011;62840;52.366;5.980;2023-04-03T13:31:18;3.42;;;0.90;;
69573;SDS011;62840;52.366;5.980;2023-04-03T13:33:52;3.72;;;1.10;;
69573;SDS011;62840;52.366;5.980;2023-04-03T13:36:22;3.42;;;0.82;;
69573;SDS011;62840;52.366;5.980;2023-04-03T13:38:59;2.72;;;0.90;;
69573;SDS011;62840;52.366;5.980;2023-04-03T13:41:32;4.40;;;1.08;;
69573;SDS011;62840;52.366;5.980;2023-04-03T13:44:23;2.75;;;0.90;;
69573;SDS011;62840;52.366;5.980;2023-04-03T13:46:55;3.42;;;1.00;;
69573;SDS011;62840;52.366;5.980;2023-04-03T13:49:28;4.65;;;1.20;;
69573;SDS011;62840;52.366;5.980;2023-04-03T13:51:58;3.95;;;0.98;;
69573;SDS011;62840;52.366;5.980;2023-04-03T13:54:25;3.97;;;1.00;;
69573;SDS011;62840;52.366;5.980;2023-04-03T13:57:00;2.72;;;1.00;;
69573;SDS011;62840;52.366;5.980;2023-04-03T13:59:28;3.83;;;1.10;;
69573;SDS011;62840;52.366;5.980;2023-04-03T14:02:09;3.45;;;0.88;;
69573;SDS011;62840;52.366;5.980;2023-04-03T14:04:45;2.97;;;1.20;;
69573;SDS011;62840;52.366;5.980;2023-04-03T14:07:16;4.13;;;0.88;;
69573;SDS011;62840;52.366;5.980;2023-04-03T14:09:42;4.03;;;0.90;;
69573;SDS011;62840;52.366;5.980;2023-04-03T14:12:12;5.70;;;1.50;;
69573;SDS011;62840;52.366;5.980;2023-04-03T14:14:42;3.88;;;1.02;;
69573;SDS011;62840;52.366;5.980;2023-04-03T14:17:12;4.53;;;1.25;;
69573;SDS011;62840;52.366;5.980;2023-04-03T14:19:41;5.32;;;0.90;;
69573;SDS011;62840;52.366;5.980;2023-04-03T14:22:12;3.40;;;0.90;;
69573;SDS011;62840;52.366;5.980;2023-04-03T14:24:42;3.58;;;0.70;;
69573;SDS011;62840;52.366;5.980;2023-04-03T14:27:13;3.60;;;1.07;;
69573;SDS011;62840;52.366;5.980;2023-04-03T14:29:44;3.50;;;1.10;;
69573;SDS011;62840;52.366;5.980;2023-04-03T14:32:12;3.33;;;0.95;;
69573;SDS011;62840;52.366;5.980;2023-04-03T14:34:38;3.35;;;1.00;;
69573;SDS011;62840;52.366;5.980;2023-04-03T14:37:04;3.23;;;0.80;;
69573;SDS011;62840;52.366;5.980;2023-04-03T14:39:30;3.38;;;0.90;;
69573;SDS011;62840;52.366;5.980;2023-04-03T14:41:56;3.60;;;0.88;;
69573;SDS011;62840;52.366;5.980;2023-04-03T14:44:24;3.70;;;1.20;;
69573;SDS011;62840;52.366;5.980;2023-04-03T14:46:50;3.15;;;1.08;;
69573;SDS011;62840;52.366;5.980;2023-04-03T14:49:18;3.67;;;1.00;;
69573;SDS011;62840;52.366;5.980;2023-04-03T14:51:48;3.90;;;0.90;;
69573;SDS011;62840;52.366;5.980;2023-04-03T14:54:16;3.38;;;1.05;;
69573;SDS011;62840;52.366;5.980;2023-04-03T14:56:45;4.20;;;0.90;;
69573;SDS011;62840;52.366;5.980;2023-04-03T14:59:12;4.30;;;1.20;;
69573;SDS011;62840;52.366;5.980;2023-04-03T15:01:41;3.47;;;0.80;;
69573;SDS011;62840;52.366;5.980;2023-04-03T15:04:10;4.05;;;1.00;;
69573;SDS011;62840;52.366;5.980;2023-04-03T15:06:37;3.33;;;1.10;;
69573;SDS011;62840;52.366;5.980;2023-04-03T15:09:03;3.63;;;0.85;;
69573;SDS011;62840;52.366;5.980;2023-04-03T15:11:29;4.22;;;0.90;;
69573;SDS011;62840;52.366;5.980;2023-04-03T15:13:54;3.38;;;0.90;;
69573;SDS011;62840;52.366;5.980;2023-04-03T15:16:20;3.13;;;0.90;;
69573;SDS011;62840;52.366;5.980;2023-04-03T15:18:50;3.58;;;0.95;;
69573;SDS011;62840;52.366;5.980;2023-04-03T15:21:15;3.53;;;1.10;;
69573;SDS011;62840;52.366;5.980;2023-04-03T15:23:41;4.70;;;1.10;;
69573;SDS011;62840;52.366;5.980;2023-04-03T15:26:07;3.53;;;1.05;;
69573;SDS011;62840;52.366;5.980;2023-04-03T15:28:34;3.50;;;1.48;;
69573;SDS011;62840;52.366;5.980;2023-04-03T15:31:04;4.03;;;1.00;;
69573;SDS011;62840;52.366;5.980;2023-04-03T15:33:31;3.90;;;0.88;;
69573;SDS011;62840;52.366;5.980;2023-04-03T15:36:01;3.58;;;0.90;;